Time;durP1;ratioP1;P1;durP2;ratioP2;P2;SDS_P1;SDS_P2;PMS_P1;PMS_P2;Temp;Humidity;BMP_temperature;BMP_pressure;BME280_temperature;BME280_humidity;BME280_pressure;Samples;Min_cycle;Max_cycle;Signal;HPM_P1;HPM_P2
2021/09/04 00:00:32;;;;;;;6.07;5.03;;;21.00;68.70;;;;;;5094590;28;20498;-53
2021/09/04 00:02:59;;;;;;;9.10;5.70;;;21.00;68.60;;;;;;5094764;28;20032;-53
2021/09/04 00:05:26;;;;;;;6.00;4.90;;;21.00;68.60;;;;;;5075988;28;20051;-51
2021/09/04 00:07:52;;;;;;;9.77;4.60;;;21.00;68.60;;;;;;5091166;28;20044;-57
2021/09/04 00:10:19;;;;;;;6.00;4.75;;;21.10;68.50;;;;;;5091300;28;20032;-56
2021/09/04 00:12:46;;;;;;;4.70;4.00;;;21.10;68.50;;;;;;5088772;28;20040;-54
2021/09/04 00:15:12;;;;;;;5.75;5.03;;;21.00;68.40;;;;;;5091416;28;20413;-54
2021/09/04 00:17:42;;;;;;;6.32;4.38;;;21.00;68.30;;;;;;5091310;28;20423;-58
2021/09/04 00:20:10;;;;;;;8.23;5.30;;;21.00;68.50;;;;;;5090304;28;20051;-56
2021/09/04 00:22:36;;;;;;;6.38;4.95;;;21.00;68.60;;;;;;5091054;28;20048;-51
2021/09/04 00:25:03;;;;;;;6.88;4.82;;;21.00;68.80;;;;;;5091422;28;20032;-54
2021/09/04 00:27:30;;;;;;;6.95;5.60;;;21.00;68.80;;;;;;5092082;28;20036;-54
2021/09/04 00:29:56;;;;;;;7.47;5.75;;;21.00;68.80;;;;;;5093183;28;20384;-52
2021/09/04 00:32:22;;;;;;;12.07;5.90;;;21.00;68.90;;;;;;5092829;28;20050;-57
2021/09/04 00:34:49;;;;;;;8.68;6.28;;;21.00;69.20;;;;;;5092449;28;20036;-54
2021/09/04 00:37:15;;;;;;;7.15;6.32;;;21.00;69.30;;;;;;5092721;28;20020;-53
2021/09/04 00:39:42;;;;;;;7.47;5.82;;;21.00;69.50;;;;;;5092199;28;20384;-55
2021/09/04 00:42:09;;;;;;;8.38;6.43;;;21.00;69.60;;;;;;5092959;28;20380;-55
2021/09/04 00:44:36;;;;;;;7.30;6.10;;;21.00;69.60;;;;;;5075012;28;20043;-53
2021/09/04 00:47:04;;;;;;;9.70;6.07;;;21.00;69.70;;;;;;5093028;28;20047;-52
2021/09/04 00:49:33;;;;;;;10.30;6.40;;;21.00;69.80;;;;;;5091590;28;20048;-56
2021/09/04 00:52:01;;;;;;;9.07;6.47;;;21.00;69.80;;;;;;5092931;28;20028;-52
2021/09/04 00:54:27;;;;;;;9.80;6.32;;;21.00;69.70;;;;;;5053050;28;20031;-54
2021/09/04 00:56:54;;;;;;;10.25;6.82;;;21.00;69.80;;;;;;5092635;28;20581;-52
2021/09/04 00:59:22;;;;;;;6.93;5.55;;;21.00;69.80;;;;;;5074457;28;20473;-54
2021/09/04 01:01:48;;;;;;;11.85;6.10;;;20.90;69.80;;;;;;5093176;28;20024;-53
2021/09/04 01:04:15;;;;;;;7.88;6.97;;;20.90;69.90;;;;;;5093453;28;20036;-55
2021/09/04 01:06:42;;;;;;;8.65;6.55;;;20.90;69.70;;;;;;5093735;28;20388;-55
2021/09/04 01:09:10;;;;;;;9.40;6.35;;;21.00;69.80;;;;;;5093614;28;20035;-54
2021/09/04 01:11:37;;;;;;;7.80;6.00;;;20.90;69.70;;;;;;5092343;28;20381;-53
2021/09/04 01:14:04;;;;;;;7.40;6.00;;;21.00;69.80;;;;;;5093075;28;20043;-51
2021/09/04 01:16:39;;;;;;;7.95;6.50;;;20.90;69.80;;;;;;5092925;28;20032;-55
2021/09/04 01:19:06;;;;;;;7.18;5.55;;;20.90;69.90;;;;;;5093370;28;20467;-55
2021/09/04 01:21:34;;;;;;;8.80;6.53;;;20.90;70.00;;;;;;5093219;28;20048;-52
2021/09/04 01:24:02;;;;;;;11.52;7.72;;;20.90;70.00;;;;;;5074524;28;20056;-51
2021/09/04 01:26:29;;;;;;;7.78;6.30;;;20.90;69.90;;;;;;5093035;28;20035;-54
2021/09/04 01:28:56;;;;;;;7.97;6.15;;;20.90;69.90;;;;;;5092984;28;20032;-54
2021/09/04 01:31:24;;;;;;;10.30;7.28;;;20.90;69.90;;;;;;5093097;28;20036;-53
2021/09/04 01:33:51;;;;;;;9.15;6.20;;;20.90;69.80;;;;;;5093108;28;20066;-51
2021/09/04 01:36:30;;;;;;;8.75;6.68;;;20.90;69.90;;;;;;5074971;28;20368;-55
2021/09/04 01:38:58;;;;;;;10.02;6.28;;;20.90;69.80;;;;;;5093193;28;20039;-54
2021/09/04 01:41:26;;;;;;;7.82;6.18;;;20.90;69.90;;;;;;5090802;28;20055;-51
2021/09/04 01:43:54;;;;;;;9.25;6.22;;;21.00;69.90;;;;;;5093220;28;20472;-52
2021/09/04 01:46:21;;;;;;;8.13;5.88;;;21.00;69.70;;;;;;5092689;28;20054;-51
2021/09/04 01:48:48;;;;;;;9.95;5.38;;;21.00;69.60;;;;;;5091807;28;20048;-52
2021/09/04 01:51:15;;;;;;;9.65;6.55;;;21.00;69.60;;;;;;5092235;28;20039;-60
2021/09/04 01:53:42;;;;;;;8.10;5.93;;;20.90;69.50;;;;;;5093081;28;20486;-49
2021/09/04 01:56:10;;;;;;;6.97;5.78;;;20.90;69.40;;;;;;5092566;28;20472;-53
2021/09/04 01:58:36;;;;;;;8.00;5.47;;;20.90;69.30;;;;;;5093015;28;20362;-52
2021/09/04 02:01:04;;;;;;;6.20;5.03;;;20.90;69.20;;;;;;5092482;28;20044;-49
2021/09/04 02:03:30;;;;;;;7.45;5.60;;;20.90;69.20;;;;;;5091599;28;20047;-48
2021/09/04 02:05:57;;;;;;;8.05;5.38;;;20.90;69.30;;;;;;5092701;28;20020;-53
2021/09/04 02:08:23;;;;;;;7.70;5.47;;;20.90;69.30;;;;;;5092348;28;20036;-51
2021/09/04 02:10:50;;;;;;;7.35;5.85;;;20.90;69.40;;;;;;5092798;28;20028;-53
2021/09/04 02:13:16;;;;;;;7.53;5.20;;;20.90;69.50;;;;;;5091398;28;20044;-56
2021/09/04 02:15:43;;;;;;;14.60;5.47;;;20.90;69.50;;;;;;5095510;28;20040;-53
2021/09/04 02:18:09;;;;;;;8.27;5.63;;;20.90;69.60;;;;;;5096410;28;20476;-52
2021/09/04 02:20:37;;;;;;;6.32;5.28;;;20.90;69.70;;;;;;5096894;28;20461;-52
2021/09/04 02:23:10;;;;;;;8.10;5.55;;;20.90;69.70;;;;;;5096421;28;20047;-54
2021/09/04 02:25:36;;;;;;;7.07;5.25;;;20.90;69.90;;;;;;5095637;28;20040;-54
2021/09/04 02:28:03;;;;;;;6.65;5.63;;;20.80;69.70;;;;;;5096565;28;20039;-55
2021/09/04 02:30:30;;;;;;;7.65;4.95;;;20.90;69.70;;;;;;5078065;28;20055;-51
2021/09/04 02:32:58;;;;;;;6.25;5.20;;;20.90;69.60;;;;;;5095501;28;20044;-51
2021/09/04 02:35:25;;;;;;;8.02;5.60;;;20.80;69.40;;;;;;5096302;28;20380;-48
2021/09/04 02:37:53;;;;;;;7.25;5.00;;;20.90;69.50;;;;;;5096725;28;20391;-54
2021/09/04 02:40:20;;;;;;;6.72;4.68;;;20.90;69.40;;;;;;5096377;28;20514;-50
2021/09/04 02:42:47;;;;;;;5.53;4.90;;;20.90;69.40;;;;;;5096579;28;20036;-56
2021/09/04 02:45:14;;;;;;;7.35;5.00;;;20.90;69.30;;;;;;5077148;28;20071;-56
2021/09/04 02:47:41;;;;;;;8.30;5.25;;;20.90;69.30;;;;;;5095375;28;20051;-56
2021/09/04 02:50:08;;;;;;;7.60;5.35;;;20.80;69.30;;;;;;5077016;28;20052;-55
2021/09/04 02:52:34;;;;;;;7.90;5.07;;;20.80;69.20;;;;;;5077850;28;20051;-54
2021/09/04 02:55:01;;;;;;;7.65;4.95;;;20.90;69.20;;;;;;5077268;28;20047;-54
2021/09/04 02:57:28;;;;;;;8.40;5.55;;;20.80;69.20;;;;;;5096106;28;20032;-54
2021/09/04 02:59:56;;;;;;;5.95;4.82;;;20.90;69.30;;;;;;5076964;28;20048;-51
2021/09/04 03:02:22;;;;;;;6.82;5.03;;;20.80;69.30;;;;;;5095785;28;20032;-54
2021/09/04 03:04:49;;;;;;;9.30;5.55;;;20.80;69.40;;;;;;5095669;28;20032;-53
2021/09/04 03:07:17;;;;;;;7.13;4.95;;;20.80;69.40;;;;;;5096191;28;20028;-55
2021/09/04 03:09:44;;;;;;;8.48;5.15;;;20.80;69.40;;;;;;5095716;28;20457;-53
2021/09/04 03:12:11;;;;;;;7.38;5.47;;;20.80;69.50;;;;;;5095743;28;20050;-54
2021/09/04 03:14:39;;;;;;;9.48;6.03;;;20.80;69.60;;;;;;5094988;28;20044;-53
2021/09/04 03:17:06;;;;;;;7.13;5.25;;;20.80;69.50;;;;;;5094581;28;20044;-56
2021/09/04 03:19:33;;;;;;;7.53;4.90;;;20.80;69.50;;;;;;5095809;28;20032;-52
2021/09/04 03:22:02;;;;;;;9.15;5.65;;;20.80;69.50;;;;;;5095414;28;20067;-52
2021/09/04 03:24:29;;;;;;;9.10;5.85;;;20.80;69.50;;;;;;5094091;28;20043;-54
2021/09/04 03:26:56;;;;;;;8.40;5.00;;;20.80;69.50;;;;;;5094322;28;20055;-54
2021/09/04 03:29:23;;;;;;;8.30;5.15;;;20.80;69.60;;;;;;5095559;28;20460;-52
2021/09/04 03:31:50;;;;;;;7.20;4.75;;;20.80;69.60;;;;;;5077246;28;20416;-50
2021/09/04 03:34:16;;;;;;;6.65;5.20;;;20.70;69.60;;;;;;5094477;28;20043;-51
2021/09/04 03:36:43;;;;;;;8.70;5.30;;;20.80;69.70;;;;;;5094143;28;20066;-54
2021/09/04 03:39:09;;;;;;;7.15;4.90;;;20.80;69.70;;;;;;5094524;28;20044;-54
2021/09/04 03:41:36;;;;;;;6.35;5.07;;;20.70;69.70;;;;;;5094925;28;20039;-53
2021/09/04 03:44:04;;;;;;;7.72;5.72;;;20.70;69.70;;;;;;5094064;28;20048;-52
2021/09/04 03:46:32;;;;;;;7.90;6.25;;;20.80;69.60;;;;;;5093781;28;20067;-54
2021/09/04 03:49:00;;;;;;;8.00;5.47;;;20.70;69.60;;;;;;5076498;28;20051;-52
2021/09/04 03:51:28;;;;;;;8.50;5.80;;;20.70;69.60;;;;;;5095146;28;20039;-55
2021/09/04 03:53:55;;;;;;;6.95;5.95;;;20.70;69.90;;;;;;5094975;28;20028;-54
2021/09/04 03:56:22;;;;;;;8.20;6.18;;;20.70;69.80;;;;;;5094355;28;20052;-50
2021/09/04 03:58:50;;;;;;;7.82;6.03;;;20.70;69.80;;;;;;5094798;28;20027;-53
2021/09/04 04:01:18;;;;;;;7.55;5.88;;;20.70;70.00;;;;;;5093670;28;20043;-54
2021/09/04 04:03:45;;;;;;;8.68;5.82;;;20.70;70.10;;;;;;5076032;28;20506;-49
2021/09/04 04:06:11;;;;;;;7.30;5.90;;;20.60;70.00;;;;;;5094762;28;20032;-50
2021/09/04 04:08:39;;;;;;;10.55;5.75;;;20.70;70.30;;;;;;5094433;28;20028;-52
2021/09/04 04:11:11;;;;;;;8.00;4.72;;;20.60;70.60;;;;;;5093966;28;20495;-53
2021/09/04 04:13:38;;;;;;;9.25;5.13;;;20.60;70.90;;;;;;5094295;28;20032;-53
2021/09/04 04:16:06;;;;;;;7.93;5.30;;;20.60;71.20;;;;;;5094864;28;20063;-54
2021/09/04 04:18:33;;;;;;;7.95;5.32;;;20.50;71.50;;;;;;5094613;28;20024;-52
2021/09/04 04:21:01;;;;;;;9.23;5.20;;;20.50;72.10;;;;;;5094345;28;20036;-52
2021/09/04 04:23:28;;;;;;;8.27;4.80;;;20.50;72.40;;;;;;5093944;28;20396;-53
2021/09/04 04:25:56;;;;;;;7.85;4.38;;;20.50;72.50;;;;;;5076176;28;20054;-55
2021/09/04 04:28:23;;;;;;;7.30;5.35;;;20.40;72.50;;;;;;5093355;28;20036;-52
2021/09/04 04:30:50;;;;;;;8.02;4.85;;;20.40;72.80;;;;;;5093415;28;20062;-53
2021/09/04 04:33:17;;;;;;;7.38;5.60;;;20.40;73.00;;;;;;5094195;28;20032;-53
2021/09/04 04:35:45;;;;;;;6.63;4.65;;;20.30;73.10;;;;;;5092885;28;20055;-52
2021/09/04 04:38:11;;;;;;;9.95;5.45;;;20.30;73.10;;;;;;5093525;28;20028;-51
2021/09/04 04:40:38;;;;;;;7.80;5.60;;;20.30;73.30;;;;;;5093170;28;20392;-54
2021/09/04 04:43:06;;;;;;;9.75;5.43;;;20.30;73.50;;;;;;5092794;28;20044;-53
2021/09/04 04:45:34;;;;;;;7.00;4.82;;;20.20;73.40;;;;;;5093727;28;20064;-54
2021/09/04 04:48:01;;;;;;;9.93;5.95;;;20.20;73.70;;;;;;5094033;28;20492;-55
2021/09/04 04:50:29;;;;;;;9.65;5.43;;;20.20;74.00;;;;;;5075285;28;20052;-54
2021/09/04 04:52:57;;;;;;;7.00;5.45;;;20.10;74.00;;;;;;5093863;28;20043;-55
2021/09/04 04:55:24;;;;;;;8.60;5.78;;;20.10;74.00;;;;;;5093505;28;20036;-49
2021/09/04 04:57:51;;;;;;;9.32;5.75;;;20.20;74.30;;;;;;5074781;28;20044;-51
2021/09/04 05:00:18;;;;;;;7.82;5.90;;;20.10;74.40;;;;;;5093847;28;20043;-52
2021/09/04 05:02:45;;;;;;;8.45;5.82;;;20.10;74.80;;;;;;5093369;28;20032;-52
2021/09/04 05:05:12;;;;;;;8.35;6.38;;;20.10;74.90;;;;;;5092491;28;20056;-51
2021/09/04 05:07:39;;;;;;;8.30;5.97;;;20.00;74.70;;;;;;5075422;28;20032;-53
2021/09/04 05:10:07;;;;;;;10.25;5.88;;;20.00;75.00;;;;;;5093468;28;20419;-53
2021/09/04 05:12:33;;;;;;;8.23;4.88;;;20.00;75.20;;;;;;5092403;28;20040;-54
2021/09/04 05:15:00;;;;;;;8.55;6.32;;;20.00;75.30;;;;;;5075298;28;20024;-55
2021/09/04 05:17:26;;;;;;;8.45;5.10;;;19.90;75.40;;;;;;5074894;28;20051;-55
2021/09/04 05:19:54;;;;;;;8.73;6.20;;;19.90;75.60;;;;;;5074351;28;20044;-51
2021/09/04 05:22:21;;;;;;;7.63;5.97;;;19.80;76.00;;;;;;5092794;28;20392;-53
2021/09/04 05:24:48;;;;;;;8.80;6.53;;;19.80;76.10;;;;;;5058330;28;20480;-51
2021/09/04 05:27:15;;;;;;;6.20;5.15;;;19.80;76.30;;;;;;5093028;28;20024;-55
2021/09/04 05:29:41;;;;;;;7.93;5.38;;;19.80;76.40;;;;;;5093218;28;20039;-54
2021/09/04 05:32:08;;;;;;;9.85;5.35;;;19.80;76.40;;;;;;5093000;28;20028;-53
2021/09/04 05:34:34;;;;;;;8.23;4.97;;;19.80;76.40;;;;;;5074870;28;20028;-53
2021/09/04 05:37:01;;;;;;;7.28;5.32;;;19.80;76.40;;;;;;5091976;28;20051;-53
2021/09/04 05:39:27;;;;;;;7.05;5.03;;;19.70;76.80;;;;;;5092691;28;20027;-54
2021/09/04 05:41:54;;;;;;;8.93;5.53;;;19.70;77.10;;;;;;5093108;28;20032;-51
2021/09/04 05:44:20;;;;;;;7.72;5.45;;;19.70;77.30;;;;;;5093075;28;20036;-53
2021/09/04 05:46:47;;;;;;;9.32;6.20;;;19.70;77.50;;;;;;5092162;28;20044;-48
2021/09/04 05:49:13;;;;;;;10.05;6.18;;;19.70;77.30;;;;;;5091066;28;20032;-52
2021/09/04 05:51:39;;;;;;;9.52;6.63;;;19.70;77.30;;;;;;5092622;28;20031;-50
2021/09/04 05:54:06;;;;;;;7.47;5.95;;;19.70;77.40;;;;;;5092880;28;20384;-52
2021/09/04 05:56:33;;;;;;;7.28;6.07;;;19.70;77.50;;;;;;5073878;28;20044;-55
2021/09/04 05:58:59;;;;;;;8.27;5.82;;;19.60;77.80;;;;;;5091442;28;20043;-55
2021/09/04 06:01:25;;;;;;;12.07;6.70;;;19.60;78.30;;;;;;5091395;28;20040;-53
2021/09/04 06:03:52;;;;;;;10.23;6.40;;;19.60;78.30;;;;;;5092121;28;20094;-52
2021/09/04 06:06:18;;;;;;;12.40;6.40;;;19.70;78.40;;;;;;5091569;28;20499;-52
2021/09/04 06:08:45;;;;;;;12.57;7.82;;;19.70;78.50;;;;;;5091566;28;20044;-51
2021/09/04 06:11:11;;;;;;;10.68;5.90;;;19.70;78.80;;;;;;5092253;28;20075;-49
2021/09/04 06:13:38;;;;;;;9.40;6.55;;;19.80;79.20;;;;;;5092597;28;20035;-54
2021/09/04 06:16:04;;;;;;;12.18;7.18;;;19.80;79.40;;;;;;5092622;28;20373;-51
2021/09/04 06:18:30;;;;;;;8.05;5.60;;;19.80;79.60;;;;;;5092678;28;20487;-53
2021/09/04 06:20:57;;;;;;;10.90;6.35;;;19.80;80.10;;;;;;5092272;28;20508;-54
2021/09/04 06:23:23;;;;;;;8.88;5.95;;;19.80;80.30;;;;;;5091951;28;20051;-50
2021/09/04 06:25:50;;;;;;;9.43;6.25;;;19.90;80.00;;;;;;5091957;28;20055;-51
2021/09/04 06:28:16;;;;;;;10.82;6.80;;;19.90;80.00;;;;;;5092607;28;20077;-53
2021/09/04 06:30:43;;;;;;;13.50;6.55;;;19.90;80.50;;;;;;5092315;28;20047;-55
2021/09/04 06:33:09;;;;;;;8.75;6.00;;;19.90;80.50;;;;;;5092172;28;20384;-54
2021/09/04 06:35:36;;;;;;;9.43;6.53;;;20.00;80.70;;;;;;5091177;28;20389;-54
2021/09/04 06:38:03;;;;;;;13.02;6.50;;;20.10;80.90;;;;;;5074652;28;20036;-60
2021/09/04 06:40:29;;;;;;;11.52;6.72;;;20.10;81.00;;;;;;5092198;28;20380;-52
2021/09/04 06:42:56;;;;;;;9.43;6.35;;;20.20;80.70;;;;;;5091303;28;20044;-53
2021/09/04 06:45:22;;;;;;;9.75;7.25;;;20.30;79.70;;;;;;5092091;28;20039;-53
2021/09/04 06:47:49;;;;;;;10.50;6.57;;;20.40;79.00;;;;;;5090867;28;20063;-55
2021/09/04 06:50:15;;;;;;;10.35;6.20;;;20.50;78.40;;;;;;5092191;28;20031;-53
2021/09/04 06:52:42;;;;;;;7.47;5.65;;;20.60;78.00;;;;;;5092228;28;20035;-55
2021/09/04 06:55:08;;;;;;;8.60;5.50;;;20.70;77.00;;;;;;5073952;28;20392;-52
2021/09/04 06:57:35;;;;;;;7.68;6.35;;;20.80;76.00;;;;;;5092192;28;20024;-54
2021/09/04 07:00:06;;;;;;;7.30;5.70;;;21.00;75.40;;;;;;5093070;28;20040;-49
2021/09/04 07:02:32;;;;;;;8.93;5.88;;;21.20;74.80;;;;;;5095621;28;20480;-52
2021/09/04 07:04:59;;;;;;;8.23;5.90;;;21.30;74.30;;;;;;5077460;28;20389;-51
2021/09/04 07:07:25;;;;;;;7.18;5.07;;;21.40;72.80;;;;;;5094206;28;20383;-51
2021/09/04 07:09:52;;;;;;;7.57;5.45;;;21.50;71.90;;;;;;5095203;28;20031;-54
2021/09/04 07:12:18;;;;;;;9.40;6.13;;;21.70;70.60;;;;;;5095580;28;20080;-53
2021/09/04 07:14:45;;;;;;;8.18;5.82;;;21.80;69.80;;;;;;5094320;28;20036;-50
2021/09/04 07:17:11;;;;;;;7.78;5.45;;;21.90;71.50;;;;;;5094878;28;20044;-53
2021/09/04 07:19:39;;;;;;;6.28;5.15;;;22.00;69.60;;;;;;5095729;28;20321;-52
2021/09/04 07:22:05;;;;;;;8.30;4.80;;;22.00;66.20;;;;;;5095762;28;20415;-51
2021/09/04 07:24:32;;;;;;;7.63;5.10;;;22.10;65.80;;;;;;5076829;28;20047;-52
2021/09/04 07:26:59;;;;;;;7.03;5.03;;;22.20;65.50;;;;;;5095295;28;20032;-54
2021/09/04 07:29:26;;;;;;;10.25;6.47;;;22.30;64.40;;;;;;5095061;28;20468;-53
2021/09/04 07:31:53;;;;;;;8.27;6.22;;;22.40;63.00;;;;;;5077121;28;20376;-49
2021/09/04 07:34:19;;;;;;;8.15;5.43;;;22.40;62.70;;;;;;5095195;28;20128;-52
2021/09/04 07:36:45;;;;;;;180.32;30.88;;;22.50;62.50;;;;;;5094543;28;20048;-52
2021/09/04 07:39:31;;;;;;;47.35;11.07;;;22.60;63.50;;;;;;5094742;28;20415;-53
2021/09/04 07:41:58;;;;;;;25.90;8.88;;;22.70;62.10;;;;;;5076860;28;20098;-52
2021/09/04 07:44:24;;;;;;;28.00;8.02;;;22.80;61.70;;;;;;5094550;28;20051;-52
2021/09/04 07:46:51;;;;;;;18.55;6.32;;;22.90;61.40;;;;;;5095048;28;20056;-53
2021/09/04 07:49:17;;;;;;;14.88;5.97;;;23.00;61.00;;;;;;5092896;28;20040;-53
2021/09/04 07:51:44;;;;;;;11.20;6.35;;;23.00;60.40;;;;;;5094271;28;20040;-56
2021/09/04 07:54:10;;;;;;;10.65;6.72;;;23.10;60.60;;;;;;5094510;28;20040;-50
2021/09/04 07:56:37;;;;;;;16.60;6.25;;;23.10;59.60;;;;;;5094895;28;20032;-52
2021/09/04 07:59:04;;;;;;;9.38;5.90;;;23.00;60.00;;;;;;5093681;28;20028;-53
2021/09/04 08:01:30;;;;;;;9.95;5.30;;;23.10;60.40;;;;;;5094550;28;20032;-54
2021/09/04 08:03:57;;;;;;;8.88;5.60;;;23.10;60.60;;;;;;5094444;28;20393;-50
2021/09/04 08:06:23;;;;;;;9.45;5.53;;;23.20;60.30;;;;;;5092947;28;20044;-52
2021/09/04 08:08:50;;;;;;;8.75;5.72;;;23.30;59.80;;;;;;5094496;28;20457;-52
2021/09/04 08:11:18;;;;;;;10.75;6.82;;;23.40;59.30;;;;;;5092165;28;20040;-55
2021/09/04 08:13:45;;;;;;;8.98;6.50;;;23.30;58.70;;;;;;5093904;28;20111;-52
2021/09/04 08:16:11;;;;;;;8.43;6.10;;;23.30;58.90;;;;;;5093274;28;20419;-55
2021/09/04 08:18:38;;;;;;;7.90;5.28;;;23.40;58.70;;;;;;5092442;28;20028;-55
2021/09/04 08:21:04;;;;;;;7.55;5.63;;;23.50;58.80;;;;;;5093048;28;20039;-53
2021/09/04 08:23:31;;;;;;;8.30;6.97;;;23.50;58.10;;;;;;5074830;28;20032;-51
2021/09/04 08:25:58;;;;;;;10.48;5.80;;;23.60;57.50;;;;;;5092347;28;20043;-56
2021/09/04 08:28:24;;;;;;;10.40;6.60;;;23.60;57.50;;;;;;5093223;28;20027;-56
2021/09/04 08:30:51;;;;;;;12.52;7.30;;;23.60;58.30;;;;;;5091927;28;20040;-57
2021/09/04 08:33:18;;;;;;;9.88;7.38;;;23.60;58.60;;;;;;5092942;28;20468;-56
2021/09/04 08:35:45;;;;;;;12.13;8.85;;;23.70;58.50;;;;;;5092696;28;20472;-55
2021/09/04 08:38:12;;;;;;;12.05;9.13;;;23.80;58.30;;;;;;5092528;28;20016;-52
2021/09/04 08:40:41;;;;;;;14.18;9.18;;;23.90;58.00;;;;;;5092472;28;20039;-53
2021/09/04 08:43:07;;;;;;;11.18;8.85;;;23.90;57.60;;;;;;5092700;28;20039;-53
2021/09/04 08:45:34;;;;;;;10.70;7.20;;;24.00;57.50;;;;;;5091983;28;20508;-53
2021/09/04 08:48:01;;;;;;;18.27;8.93;;;24.00;57.90;;;;;;5092774;28;20028;-53
2021/09/04 08:50:28;;;;;;;11.30;7.68;;;24.10;57.80;;;;;;5092871;28;20037;-54
2021/09/04 08:52:55;;;;;;;10.10;7.28;;;24.20;57.60;;;;;;5092346;28;20032;-54
2021/09/04 08:55:22;;;;;;;10.45;7.35;;;24.30;55.80;;;;;;5092906;28;20038;-54
2021/09/04 08:57:49;;;;;;;7.15;6.25;;;24.30;54.70;;;;;;5092584;28;20032;-51
2021/09/04 09:00:34;;;;;;;13.07;10.25;;;24.30;54.90;;;;;;5091393;28;20476;-50
2021/09/04 09:03:01;;;;;;;15.32;6.60;;;24.40;54.80;;;;;;5092254;28;20043;-56
2021/09/04 09:05:41;;;;;;;14.85;6.20;;;24.40;53.80;;;;;;5074339;28;20036;-58
2021/09/04 09:08:21;;;;;;;10.63;7.43;;;24.50;54.00;;;;;;5092319;28;20035;-59
2021/09/04 09:10:48;;;;;;;11.93;7.03;;;24.60;54.30;;;;;;5092329;28;20032;-56
2021/09/04 09:13:16;;;;;;;8.75;5.75;;;24.70;53.70;;;;;;5092066;28;20032;-58
2021/09/04 09:15:44;;;;;;;9.73;6.38;;;24.80;53.50;;;;;;5072048;28;20044;-58
2021/09/04 09:18:15;;;;;;;8.80;6.00;;;24.80;53.40;;;;;;5090537;28;20473;-59
2021/09/04 09:20:46;;;;;;;9.23;5.93;;;24.80;53.40;;;;;;5072453;28;20043;-58
2021/09/04 09:23:15;;;;;;;9.43;6.63;;;24.90;54.10;;;;;;5090570;28;20039;-57
2021/09/04 09:25:43;;;;;;;8.60;5.75;;;25.00;53.20;;;;;;5089192;28;20044;-57
2021/09/04 09:28:17;;;;;;;9.73;6.00;;;25.00;52.60;;;;;;5072609;28;20024;-58
2021/09/04 09:30:57;;;;;;;8.15;6.78;;;25.00;52.50;;;;;;5091240;28;20027;-58
2021/09/04 09:33:27;;;;;;;13.27;6.05;;;24.90;52.60;;;;;;5092376;28;20066;-57
2021/09/04 09:35:56;;;;;;;7.90;5.17;;;25.00;52.60;;;;;;5092006;28;20048;-55
2021/09/04 09:38:26;;;;;;;8.30;5.57;;;25.10;52.40;;;;;;5090869;28;20048;-57
2021/09/04 09:40:54;;;;;;;8.10;5.68;;;25.20;52.20;;;;;;5090626;28;20043;-57
2021/09/04 09:43:23;;;;;;;9.57;6.47;;;25.30;52.30;;;;;;5073300;28;20036;-58
2021/09/04 09:46:18;;;;;;;13.70;7.93;;;25.20;51.50;;;;;;5091676;28;20079;-56
2021/09/04 09:48:44;;;;;;;7.55;6.53;;;25.10;51.60;;;;;;5088833;28;20040;-57
2021/09/04 09:51:14;;;;;;;9.52;6.28;;;25.10;52.00;;;;;;5091829;28;20384;-58
2021/09/04 09:53:42;;;;;;;9.25;6.15;;;25.20;52.00;;;;;;5090656;28;20059;-56
2021/09/04 09:56:08;;;;;;;9.57;7.63;;;25.30;52.10;;;;;;5092976;28;20499;-56
2021/09/04 09:58:36;;;;;;;12.25;8.80;;;25.30;51.80;;;;;;5092898;28;20024;-57
2021/09/04 10:01:03;;;;;;;12.10;7.22;;;25.30;51.80;;;;;;5092446;28;20032;-57
2021/09/04 10:03:30;;;;;;;9.70;7.82;;;25.30;52.10;;;;;;5092760;28;20472;-55
2021/09/04 10:05:59;;;;;;;11.90;7.15;;;25.40;51.90;;;;;;5091158;28;20044;-58
2021/09/04 10:08:26;;;;;;;11.47;7.33;;;25.50;52.00;;;;;;5091281;28;20040;-56
2021/09/04 10:10:54;;;;;;;10.40;8.50;;;25.50;51.70;;;;;;5092239;28;20032;-57
2021/09/04 10:13:20;;;;;;;12.70;8.48;;;25.50;51.20;;;;;;5092598;28;20468;-57
2021/09/04 10:15:50;;;;;;;17.92;9.55;;;25.50;51.20;;;;;;5092324;28;20028;-56
2021/09/04 10:18:21;;;;;;;15.98;10.00;;;25.50;51.60;;;;;;5090061;28;20032;-56
2021/09/04 10:21:09;;;;;;;14.07;8.90;;;25.50;51.00;;;;;;5088548;28;20389;-53
2021/09/04 10:23:47;;;;;;;10.45;9.35;;;25.30;50.60;;;;;;5088057;28;20043;-58
2021/09/04 10:26:32;;;;;;;21.67;8.90;;;25.10;50.90;;;;;;5091854;28;20047;-56
2021/09/04 10:29:13;;;;;;;11.30;9.43;;;25.20;51.00;;;;;;5089948;28;20036;-57
2021/09/04 10:31:43;;;;;;;11.25;8.60;;;25.30;50.70;;;;;;5074112;28;20044;-57
2021/09/04 10:34:23;;;;;;;13.02;9.57;;;25.50;50.70;;;;;;5090849;28;20064;-57
2021/09/04 10:37:03;;;;;;;12.98;11.68;;;25.60;51.10;;;;;;5094562;28;20094;-55
2021/09/04 10:39:55;;;;;;;18.45;14.10;;;25.50;50.60;;;;;;5095011;28;20047;-57
2021/09/04 10:42:32;;;;;;;18.02;14.05;;;25.60;50.50;;;;;;5076124;28;20023;-58
2021/09/04 10:45:03;;;;;;;15.25;10.90;;;25.60;50.40;;;;;;5079089;28;20032;-56
2021/09/04 10:47:39;;;;;;;16.58;8.80;;;25.70;50.30;;;;;;5095027;28;20051;-56
2021/09/04 10:50:15;;;;;;;10.15;8.43;;;25.70;49.80;;;;;;5095690;28;20043;-57
2021/09/04 10:52:52;;;;;;;11.38;9.82;;;25.70;49.00;;;;;;5056852;28;20040;-57
2021/09/04 10:55:22;;;;;;;14.23;10.75;;;25.80;48.80;;;;;;5093944;28;20028;-58
2021/09/04 10:57:51;;;;;;;18.35;11.82;;;25.70;49.20;;;;;;5095405;28;20036;-56
2021/09/04 11:00:27;;;;;;;18.63;14.57;;;25.60;49.40;;;;;;5094457;28;20464;-55
2021/09/04 11:02:59;;;;;;;17.00;12.85;;;25.70;49.60;;;;;;5085048;28;20050;-56
2021/09/04 11:05:34;;;;;;;21.95;14.27;;;25.50;48.90;;;;;;5094940;28;20039;-56
2021/09/04 11:08:03;;;;;;;19.25;15.20;;;25.50;49.70;;;;;;5094722;28;20055;-55
2021/09/04 11:10:30;;;;;;;14.40;11.55;;;25.60;49.10;;;;;;5075296;28;20055;-59
2021/09/04 11:13:12;;;;;;;13.65;10.35;;;25.80;49.30;;;;;;5095172;28;20028;-56
2021/09/04 11:15:46;;;;;;;12.00;9.23;;;25.90;48.60;;;;;;5060740;28;20422;-56
2021/09/04 11:18:14;;;;;;;18.75;15.35;;;25.90;48.40;;;;;;5095795;28;20032;-58
2021/09/04 11:20:45;;;;;;;13.73;8.30;;;25.90;48.70;;;;;;5093291;28;20040;-54
2021/09/04 11:23:25;;;;;;;13.27;8.68;;;26.00;47.70;;;;;;5074879;28;20051;-60
2021/09/04 11:25:53;;;;;;;10.40;7.90;;;26.00;47.50;;;;;;5092961;28;20024;-54
2021/09/04 11:28:33;;;;;;;12.52;7.18;;;26.10;47.30;;;;;;5095091;28;20380;-56
2021/09/04 11:31:00;;;;;;;;;;;26.20;47.70;;;;;;5094329;28;20028;-52
2021/09/04 11:33:27;;;;;;;7.07;5.93;;;26.30;46.90;;;;;;5075745;28;19908;-51
2021/09/04 11:35:55;;;;;;;7.53;5.85;;;26.30;46.30;;;;;;5093134;28;20032;-56
2021/09/04 11:38:22;;;;;;;11.80;7.22;;;26.20;46.80;;;;;;5094582;28;20028;-56
2021/09/04 11:40:51;;;;;;;12.25;6.32;;;26.10;46.60;;;;;;5076663;28;20036;-55
2021/09/04 11:43:24;;;;;;;16.67;7.35;;;26.10;46.90;;;;;;5076121;28;20526;-55
2021/09/04 11:46:02;;;;;;;11.73;6.00;;;26.20;47.30;;;;;;5076897;28;20149;-55
2021/09/04 11:48:30;;;;;;;9.57;6.35;;;26.20;46.90;;;;;;5094346;28;20364;-55
2021/09/04 11:51:07;;;;;;;8.43;7.22;;;26.20;47.00;;;;;;5056833;28;20051;-57
2021/09/04 11:53:34;;;;;;;9.07;6.72;;;26.20;46.70;;;;;;5091424;28;20500;-55
2021/09/04 11:56:00;;;;;;;10.13;6.43;;;26.20;46.80;;;;;;5092718;28;20028;-54
2021/09/04 11:58:27;;;;;;;6.68;5.95;;;26.00;47.00;;;;;;5092477;28;20385;-59
2021/09/04 12:01:02;;;;;;;9.88;7.32;;;26.10;47.20;;;;;;5092972;28;20358;-55
2021/09/04 12:03:29;;;;;;;10.05;6.18;;;26.20;46.80;;;;;;5092737;28;20044;-57
2021/09/04 12:05:55;;;;;;;10.75;6.07;;;26.20;46.50;;;;;;5094165;28;20035;-54
2021/09/04 12:08:28;;;;;;;10.90;6.25;;;26.20;46.40;;;;;;5093369;28;20052;-56
2021/09/04 12:11:03;;;;;;;11.93;7.53;;;26.20;46.60;;;;;;5075725;28;20055;-59
2021/09/04 12:13:30;;;;;;;10.07;7.30;;;26.10;46.50;;;;;;5093813;28;20032;-55
2021/09/04 12:16:01;;;;;;;10.20;5.60;;;26.10;46.70;;;;;;5094805;28;20480;-54
2021/09/04 12:18:31;;;;;;;12.57;6.68;;;26.30;46.70;;;;;;5092970;28;20039;-56
2021/09/04 12:21:17;;;;;;;9.70;7.00;;;26.40;46.30;;;;;;5093930;28;20051;-54
2021/09/04 12:23:46;;;;;;;10.00;7.25;;;26.40;46.00;;;;;;5093880;28;20040;-54
2021/09/04 12:26:12;;;;;;;10.18;5.55;;;26.40;45.80;;;;;;5093891;28;20032;-55
2021/09/04 12:28:39;;;;;;;9.20;5.70;;;26.40;46.20;;;;;;5094099;28;20369;-53
2021/09/04 12:31:13;;;;;;;12.10;5.93;;;26.50;46.20;;;;;;5094436;28;20486;-55
2021/09/04 12:33:52;;;;;;;9.07;6.72;;;26.60;46.00;;;;;;5074678;28;20040;-55
2021/09/04 12:36:37;;;;;;;8.80;6.38;;;26.60;45.70;;;;;;5093848;28;20047;-53
2021/09/04 12:39:22;;;;;;;10.20;7.97;;;26.60;45.60;;;;;;5092566;28;20036;-54
2021/09/04 12:41:58;;;;;;;11.65;6.15;;;26.50;45.70;;;;;;5093532;28;20404;-53
2021/09/04 12:44:52;;;;;;;10.23;5.82;;;26.60;46.00;;;;;;5075452;28;20036;-56
2021/09/04 12:47:19;;;;;;;10.27;6.78;;;26.60;46.40;;;;;;5094089;28;20047;-54
2021/09/04 12:49:48;;;;;;;9.77;5.95;;;26.60;46.60;;;;;;5093057;28;20055;-59